sensor_id;sensor_type;location;lat;lon;timestamp;P1;durP1;ratioP1;P2;durP2;ratioP2
32523;SDS011;18965;52.242;20.886;2022-08-19T00:02:05;15.30;;;9.25;;
32523;SDS011;18965;52.242;20.886;2022-08-19T00:04:33;12.27;;;8.18;;
32523;SDS011;18965;52.242;20.886;2022-08-19T00:07:02;11.88;;;8.35;;
32523;SDS011;18965;52.242;20.886;2022-08-19T00:09:31;15.57;;;7.93;;
32523;SDS011;18965;52.242;20.886;2022-08-19T00:11:57;14.10;;;8.82;;
32523;SDS011;18965;52.242;20.886;2022-08-19T00:14:24;14.25;;;8.60;;
32523;SDS011;18965;52.242;20.886;2022-08-19T00:16:51;14.27;;;8.82;;
32523;SDS011;18965;52.242;20.886;2022-08-19T00:19:19;15.65;;;8.65;;
32523;SDS011;18965;52.242;20.886;2022-08-19T00:21:46;13.45;;;8.35;;
32523;SDS011;18965;52.242;20.886;2022-08-19T00:24:12;9.80;;;8.38;;
32523;SDS011;18965;52.242;20.886;2022-08-19T00:26:40;11.30;;;8.75;;
32523;SDS011;18965;52.242;20.886;2022-08-19T00:29:08;12.07;;;8.43;;
32523;SDS011;18965;52.242;20.886;2022-08-19T00:31:35;17.33;;;8.63;;
32523;SDS011;18965;52.242;20.886;2022-08-19T00:34:01;12.63;;;9.18;;
32523;SDS011;18965;52.242;20.886;2022-08-19T00:36:27;13.93;;;9.40;;
32523;SDS011;18965;52.242;20.886;2022-08-19T00:38:53;11.50;;;8.98;;
32523;SDS011;18965;52.242;20.886;2022-08-19T00:41:20;14.23;;;8.88;;
32523;SDS011;18965;52.242;20.886;2022-08-19T00:44:01;12.63;;;8.30;;
32523;SDS011;18965;52.242;20.886;2022-08-19T00:46:36;11.60;;;9.05;;
32523;SDS011;18965;52.242;20.886;2022-08-19T00:49:06;14.43;;;8.90;;
32523;SDS011;18965;52.242;20.886;2022-08-19T00:52:08;15.88;;;8.85;;
32523;SDS011;18965;52.242;20.886;2022-08-19T00:54:39;14.02;;;8.23;;
32523;SDS011;18965;52.242;20.886;2022-08-19T00:57:08;11.02;;;8.98;;
32523;SDS011;18965;52.242;20.886;2022-08-19T00:59:38;12.88;;;8.90;;
32523;SDS011;18965;52.242;20.886;2022-08-19T01:02:05;14.93;;;9.43;;
32523;SDS011;18965;52.242;20.886;2022-08-19T01:04:30;15.85;;;9.38;;
32523;SDS011;18965;52.242;20.886;2022-08-19T01:06:56;12.68;;;9.20;;
32523;SDS011;18965;52.242;20.886;2022-08-19T01:09:23;14.73;;;9.15;;
32523;SDS011;18965;52.242;20.886;2022-08-19T01:11:49;14.27;;;9.15;;
32523;SDS011;18965;52.242;20.886;2022-08-19T01:14:16;12.95;;;8.27;;
32523;SDS011;18965;52.242;20.886;2022-08-19T01:16:42;12.63;;;8.65;;
32523;SDS011;18965;52.242;20.886;2022-08-19T01:22:01;13.38;;;8.50;;
32523;SDS011;18965;52.242;20.886;2022-08-19T01:24:30;12.43;;;8.50;;
32523;SDS011;18965;52.242;20.886;2022-08-19T01:26:57;10.98;;;8.98;;
32523;SDS011;18965;52.242;20.886;2022-08-19T01:29:23;14.52;;;9.10;;
32523;SDS011;18965;52.242;20.886;2022-08-19T01:31:49;14.82;;;8.57;;
32523;SDS011;18965;52.242;20.886;2022-08-19T01:34:17;15.52;;;9.30;;
32523;SDS011;18965;52.242;20.886;2022-08-19T01:36:45;12.60;;;8.65;;
32523;SDS011;18965;52.242;20.886;2022-08-19T01:41:43;14.50;;;9.82;;
32523;SDS011;18965;52.242;20.886;2022-08-19T01:44:09;17.55;;;9.02;;
32523;SDS011;18965;52.242;20.886;2022-08-19T01:46:36;11.93;;;9.10;;
32523;SDS011;18965;52.242;20.886;2022-08-19T01:49:03;13.68;;;9.52;;
32523;SDS011;18965;52.242;20.886;2022-08-19T01:51:29;14.65;;;9.50;;
32523;SDS011;18965;52.242;20.886;2022-08-19T01:53:55;15.38;;;9.35;;
32523;SDS011;18965;52.242;20.886;2022-08-19T01:56:22;14.32;;;10.27;;
32523;SDS011;18965;52.242;20.886;2022-08-19T01:58:49;16.35;;;9.57;;
32523;SDS011;18965;52.242;20.886;2022-08-19T02:01:46;13.77;;;8.95;;
32523;SDS011;18965;52.242;20.886;2022-08-19T02:04:12;14.05;;;9.07;;
32523;SDS011;18965;52.242;20.886;2022-08-19T02:06:39;12.75;;;8.88;;
32523;SDS011;18965;52.242;20.886;2022-08-19T02:09:05;15.00;;;9.77;;
32523;SDS011;18965;52.242;20.886;2022-08-19T02:11:33;15.60;;;10.13;;
32523;SDS011;18965;52.242;20.886;2022-08-19T02:14:01;16.08;;;9.43;;
32523;SDS011;18965;52.242;20.886;2022-08-19T02:16:28;18.27;;;8.95;;
32523;SDS011;18965;52.242;20.886;2022-08-19T02:18:55;10.60;;;8.68;;
32523;SDS011;18965;52.242;20.886;2022-08-19T02:21:22;12.48;;;9.73;;
32523;SDS011;18965;52.242;20.886;2022-08-19T02:23:48;14.38;;;8.85;;
32523;SDS011;18965;52.242;20.886;2022-08-19T02:26:15;14.65;;;10.13;;
32523;SDS011;18965;52.242;20.886;2022-08-19T02:28:42;11.55;;;9.52;;
32523;SDS011;18965;52.242;20.886;2022-08-19T02:31:12;15.80;;;9.82;;
32523;SDS011;18965;52.242;20.886;2022-08-19T02:33:40;10.57;;;9.25;;
32523;SDS011;18965;52.242;20.886;2022-08-19T02:36:06;11.40;;;8.80;;
32523;SDS011;18965;52.242;20.886;2022-08-19T02:38:33;13.88;;;9.63;;
32523;SDS011;18965;52.242;20.886;2022-08-19T02:41:04;15.73;;;9.90;;
32523;SDS011;18965;52.242;20.886;2022-08-19T02:43:34;13.88;;;9.70;;
32523;SDS011;18965;52.242;20.886;2022-08-19T02:46:25;15.57;;;9.75;;
32523;SDS011;18965;52.242;20.886;2022-08-19T02:48:55;15.70;;;10.15;;
32523;SDS011;18965;52.242;20.886;2022-08-19T02:53:54;18.02;;;10.35;;
32523;SDS011;18965;52.242;20.886;2022-08-19T02:56:20;11.32;;;9.55;;
32523;SDS011;18965;52.242;20.886;2022-08-19T02:58:46;13.73;;;9.75;;
32523;SDS011;18965;52.242;20.886;2022-08-19T03:01:19;13.40;;;10.40;;
32523;SDS011;18965;52.242;20.886;2022-08-19T03:03:50;16.20;;;10.13;;
32523;SDS011;18965;52.242;20.886;2022-08-19T03:06:16;14.18;;;10.20;;
32523;SDS011;18965;52.242;20.886;2022-08-19T03:08:43;16.17;;;11.48;;
32523;SDS011;18965;52.242;20.886;2022-08-19T03:11:18;16.77;;;10.23;;
32523;SDS011;18965;52.242;20.886;2022-08-19T03:13:48;13.52;;;9.48;;
32523;SDS011;18965;52.242;20.886;2022-08-19T03:16:15;19.25;;;10.27;;
32523;SDS011;18965;52.242;20.886;2022-08-19T03:18:45;16.67;;;10.60;;
32523;SDS011;18965;52.242;20.886;2022-08-19T03:21:15;17.88;;;10.75;;
32523;SDS011;18965;52.242;20.886;2022-08-19T03:23:41;14.40;;;10.10;;
32523;SDS011;18965;52.242;20.886;2022-08-19T03:26:07;14.90;;;10.10;;
32523;SDS011;18965;52.242;20.886;2022-08-19T03:28:33;13.85;;;10.45;;
32523;SDS011;18965;52.242;20.886;2022-08-19T03:31:00;16.90;;;10.63;;
32523;SDS011;18965;52.242;20.886;2022-08-19T03:33:32;16.90;;;10.77;;
32523;SDS011;18965;52.242;20.886;2022-08-19T03:36:09;16.33;;;9.82;;
32523;SDS011;18965;52.242;20.886;2022-08-19T03:38:41;12.32;;;9.27;;
32523;SDS011;18965;52.242;20.886;2022-08-19T03:41:17;13.43;;;10.43;;
32523;SDS011;18965;52.242;20.886;2022-08-19T03:43:45;13.75;;;9.15;;
32523;SDS011;18965;52.242;20.886;2022-08-19T03:46:13;17.30;;;11.05;;
32523;SDS011;18965;52.242;20.886;2022-08-19T03:48:41;15.90;;;10.50;;
32523;SDS011;18965;52.242;20.886;2022-08-19T03:51:15;12.70;;;9.73;;
32523;SDS011;18965;52.242;20.886;2022-08-19T03:53:44;14.50;;;10.10;;
32523;SDS011;18965;52.242;20.886;2022-08-19T03:56:11;17.13;;;9.88;;
32523;SDS011;18965;52.242;20.886;2022-08-19T03:58:38;14.02;;;10.07;;
32523;SDS011;18965;52.242;20.886;2022-08-19T04:01:08;15.27;;;9.88;;
32523;SDS011;18965;52.242;20.886;2022-08-19T04:03:36;20.83;;;12.35;;
32523;SDS011;18965;52.242;20.886;2022-08-19T04:06:19;18.33;;;11.50;;
32523;SDS011;18965;52.242;20.886;2022-08-19T04:08:47;12.95;;;9.68;;
32523;SDS011;18965;52.242;20.886;2022-08-19T04:11:16;18.08;;;10.13;;
32523;SDS011;18965;52.242;20.886;2022-08-19T04:13:48;15.98;;;9.63;;
32523;SDS011;18965;52.242;20.886;2022-08-19T04:16:16;14.95;;;9.40;;
32523;SDS011;18965;52.242;20.886;2022-08-19T04:18:43;16.10;;;10.90;;
32523;SDS011;18965;52.242;20.886;2022-08-19T04:21:14;15.98;;;10.65;;
32523;SDS011;18965;52.242;20.886;2022-08-19T04:23:45;15.40;;;10.45;;
32523;SDS011;18965;52.242;20.886;2022-08-19T04:26:13;19.25;;;9.82;;
32523;SDS011;18965;52.242;20.886;2022-08-19T04:28:40;14.52;;;10.90;;
32523;SDS011;18965;52.242;20.886;2022-08-19T04:31:11;17.27;;;11.07;;
32523;SDS011;18965;52.242;20.886;2022-08-19T04:33:39;15.13;;;10.35;;
32523;SDS011;18965;52.242;20.886;2022-08-19T04:36:05;14.55;;;10.18;;
32523;SDS011;18965;52.242;20.886;2022-08-19T04:38:31;16.15;;;10.48;;
32523;SDS011;18965;52.242;20.886;2022-08-19T04:40:57;16.27;;;10.45;;
32523;SDS011;18965;52.242;20.886;2022-08-19T04:43:41;15.82;;;10.32;;
32523;SDS011;18965;52.242;20.886;2022-08-19T04:46:13;17.00;;;10.43;;
32523;SDS011;18965;52.242;20.886;2022-08-19T04:48:40;14.27;;;10.18;;
32523;SDS011;18965;52.242;20.886;2022-08-19T04:51:07;15.95;;;11.05;;
32523;SDS011;18965;52.242;20.886;2022-08-19T04:53:35;14.52;;;11.48;;
32523;SDS011;18965;52.242;20.886;2022-08-19T04:56:12;17.50;;;11.68;;
32523;SDS011;18965;52.242;20.886;2022-08-19T04:58:41;15.77;;;10.35;;
32523;SDS011;18965;52.242;20.886;2022-08-19T05:01:09;14.90;;;10.25;;
32523;SDS011;18965;52.242;20.886;2022-08-19T05:03:53;13.18;;;9.98;;
32523;SDS011;18965;52.242;20.886;2022-08-19T05:06:20;14.30;;;9.75;;
32523;SDS011;18965;52.242;20.886;2022-08-19T05:08:47;12.95;;;10.60;;
32523;SDS011;18965;52.242;20.886;2022-08-19T05:11:14;18.77;;;10.77;;
32523;SDS011;18965;52.242;20.886;2022-08-19T05:13:43;11.02;;;9.82;;
32523;SDS011;18965;52.242;20.886;2022-08-19T05:16:10;12.85;;;9.48;;
32523;SDS011;18965;52.242;20.886;2022-08-19T05:18:37;15.05;;;9.88;;
32523;SDS011;18965;52.242;20.886;2022-08-19T05:21:21;18.20;;;10.63;;
32523;SDS011;18965;52.242;20.886;2022-08-19T05:24:06;19.45;;;10.38;;
32523;SDS011;18965;52.242;20.886;2022-08-19T05:26:37;19.55;;;9.70;;
32523;SDS011;18965;52.242;20.886;2022-08-19T05:29:04;15.63;;;9.25;;
32523;SDS011;18965;52.242;20.886;2022-08-19T05:31:30;13.85;;;9.70;;
32523;SDS011;18965;52.242;20.886;2022-08-19T05:33:57;19.10;;;10.50;;
32523;SDS011;18965;52.242;20.886;2022-08-19T05:36:27;15.90;;;9.27;;
32523;SDS011;18965;52.242;20.886;2022-08-19T05:38:54;18.50;;;9.80;;
32523;SDS011;18965;52.242;20.886;2022-08-19T05:41:20;18.17;;;9.43;;
32523;SDS011;18965;52.242;20.886;2022-08-19T05:43:51;18.30;;;9.02;;
32523;SDS011;18965;52.242;20.886;2022-08-19T05:46:18;14.15;;;9.50;;
32523;SDS011;18965;52.242;20.886;2022-08-19T05:48:45;15.32;;;9.65;;
32523;SDS011;18965;52.242;20.886;2022-08-19T05:51:11;15.00;;;9.27;;
32523;SDS011;18965;52.242;20.886;2022-08-19T05:53:37;15.77;;;8.98;;
32523;SDS011;18965;52.242;20.886;2022-08-19T05:56:07;19.42;;;8.93;;
32523;SDS011;18965;52.242;20.886;2022-08-19T05:58:35;17.40;;;9.00;;
32523;SDS011;18965;52.242;20.886;2022-08-19T06:01:03;18.38;;;9.98;;
32523;SDS011;18965;52.242;20.886;2022-08-19T06:03:34;13.77;;;9.20;;
32523;SDS011;18965;52.242;20.886;2022-08-19T06:06:02;10.50;;;8.80;;
32523;SDS011;18965;52.242;20.886;2022-08-19T06:08:29;16.40;;;8.95;;
32523;SDS011;18965;52.242;20.886;2022-08-19T06:10:55;12.85;;;8.27;;
32523;SDS011;18965;52.242;20.886;2022-08-19T06:13:21;12.57;;;8.85;;
32523;SDS011;18965;52.242;20.886;2022-08-19T06:15:49;17.08;;;8.93;;
32523;SDS011;18965;52.242;20.886;2022-08-19T06:18:15;11.07;;;8.82;;
32523;SDS011;18965;52.242;20.886;2022-08-19T06:20:41;12.50;;;7.80;;
32523;SDS011;18965;52.242;20.886;2022-08-19T06:23:07;13.88;;;8.90;;
32523;SDS011;18965;52.242;20.886;2022-08-19T06:25:33;19.27;;;8.13;;
32523;SDS011;18965;52.242;20.886;2022-08-19T06:28:00;16.48;;;7.82;;
32523;SDS011;18965;52.242;20.886;2022-08-19T06:30:26;16.15;;;8.20;;
32523;SDS011;18965;52.242;20.886;2022-08-19T06:32:52;15.98;;;8.30;;
32523;SDS011;18965;52.242;20.886;2022-08-19T06:35:18;14.23;;;7.45;;
32523;SDS011;18965;52.242;20.886;2022-08-19T06:37:44;14.23;;;7.95;;
32523;SDS011;18965;52.242;20.886;2022-08-19T06:40:10;12.23;;;7.57;;
32523;SDS011;18965;52.242;20.886;2022-08-19T06:42:37;12.70;;;7.65;;
32523;SDS011;18965;52.242;20.886;2022-08-19T06:45:04;12.55;;;8.52;;
32523;SDS011;18965;52.242;20.886;2022-08-19T06:47:31;15.93;;;8.38;;
32523;SDS011;18965;52.242;20.886;2022-08-19T06:50:00;16.35;;;8.35;;
32523;SDS011;18965;52.242;20.886;2022-08-19T06:52:27;13.85;;;8.25;;
32523;SDS011;18965;52.242;20.886;2022-08-19T06:54:54;14.82;;;8.10;;
32523;SDS011;18965;52.242;20.886;2022-08-19T06:57:21;16.13;;;8.10;;
32523;SDS011;18965;52.242;20.886;2022-08-19T06:59:48;16.10;;;8.65;;
32523;SDS011;18965;52.242;20.886;2022-08-19T07:02:14;13.57;;;8.73;;
32523;SDS011;18965;52.242;20.886;2022-08-19T07:04:40;24.33;;;8.70;;
32523;SDS011;18965;52.242;20.886;2022-08-19T07:07:07;17.50;;;10.18;;
32523;SDS011;18965;52.242;20.886;2022-08-19T07:09:39;16.70;;;9.63;;
32523;SDS011;18965;52.242;20.886;2022-08-19T07:12:07;12.38;;;8.45;;
32523;SDS011;18965;52.242;20.886;2022-08-19T07:14:35;13.95;;;8.50;;
32523;SDS011;18965;52.242;20.886;2022-08-19T07:17:07;12.85;;;8.48;;
32523;SDS011;18965;52.242;20.886;2022-08-19T07:19:35;14.60;;;8.20;;
32523;SDS011;18965;52.242;20.886;2022-08-19T07:22:03;17.17;;;8.20;;
32523;SDS011;18965;52.242;20.886;2022-08-19T07:24:30;14.55;;;8.23;;
32523;SDS011;18965;52.242;20.886;2022-08-19T07:26:58;12.88;;;8.48;;
32523;SDS011;18965;52.242;20.886;2022-08-19T07:29:27;15.43;;;8.75;;
32523;SDS011;18965;52.242;20.886;2022-08-19T07:31:55;11.65;;;8.43;;
32523;SDS011;18965;52.242;20.886;2022-08-19T07:34:24;16.63;;;8.45;;
32523;SDS011;18965;52.242;20.886;2022-08-19T07:36:50;13.20;;;9.05;;
32523;SDS011;18965;52.242;20.886;2022-08-19T07:39:24;12.50;;;8.25;;
32523;SDS011;18965;52.242;20.886;2022-08-19T07:41:52;12.20;;;7.80;;
32523;SDS011;18965;52.242;20.886;2022-08-19T07:44:19;13.90;;;8.15;;
32523;SDS011;18965;52.242;20.886;2022-08-19T07:46:47;15.02;;;8.50;;
32523;SDS011;18965;52.242;20.886;2022-08-19T07:49:16;16.30;;;7.97;;
32523;SDS011;18965;52.242;20.886;2022-08-19T07:51:44;16.08;;;7.72;;
32523;SDS011;18965;52.242;20.886;2022-08-19T07:54:15;14.20;;;8.35;;
32523;SDS011;18965;52.242;20.886;2022-08-19T07:56:42;14.38;;;7.95;;
32523;SDS011;18965;52.242;20.886;2022-08-19T07:59:08;13.43;;;7.68;;
32523;SDS011;18965;52.242;20.886;2022-08-19T08:01:34;14.30;;;7.63;;
32523;SDS011;18965;52.242;20.886;2022-08-19T08:04:01;13.27;;;7.90;;
32523;SDS011;18965;52.242;20.886;2022-08-19T08:06:45;14.93;;;8.30;;
32523;SDS011;18965;52.242;20.886;2022-08-19T08:09:30;13.55;;;8.00;;
32523;SDS011;18965;52.242;20.886;2022-08-19T08:14:34;15.77;;;7.90;;
32523;SDS011;18965;52.242;20.886;2022-08-19T08:17:07;13.05;;;7.57;;
32523;SDS011;18965;52.242;20.886;2022-08-19T08:19:34;10.52;;;7.53;;
32523;SDS011;18965;52.242;20.886;2022-08-19T08:22:01;11.00;;;7.53;;
32523;SDS011;18965;52.242;20.886;2022-08-19T08:24:28;15.73;;;7.80;;
32523;SDS011;18965;52.242;20.886;2022-08-19T08:26:56;15.88;;;7.50;;
32523;SDS011;18965;52.242;20.886;2022-08-19T08:29:24;12.00;;;7.85;;
32523;SDS011;18965;52.242;20.886;2022-08-19T08:31:54;11.55;;;8.05;;
32523;SDS011;18965;52.242;20.886;2022-08-19T08:34:20;13.10;;;8.18;;
32523;SDS011;18965;52.242;20.886;2022-08-19T08:36:46;13.55;;;8.13;;
32523;SDS011;18965;52.242;20.886;2022-08-19T08:39:13;10.50;;;7.97;;
32523;SDS011;18965;52.242;20.886;2022-08-19T08:41:55;12.82;;;8.30;;
32523;SDS011;18965;52.242;20.886;2022-08-19T08:44:27;11.13;;;7.63;;
32523;SDS011;18965;52.242;20.886;2022-08-19T08:47:13;12.85;;;8.35;;
32523;SDS011;18965;52.242;20.886;2022-08-19T08:49:47;9.30;;;8.23;;
32523;SDS011;18965;52.242;20.886;2022-08-19T08:52:30;11.55;;;8.35;;
32523;SDS011;18965;52.242;20.886;2022-08-19T08:55:14;14.00;;;8.57;;
32523;SDS011;18965;52.242;20.886;2022-08-19T09:02:56;12.70;;;8.15;;
32523;SDS011;18965;52.242;20.886;2022-08-19T09:05:23;13.85;;;8.43;;
32523;SDS011;18965;52.242;20.886;2022-08-19T09:10:43;13.82;;;8.63;;
32523;SDS011;18965;52.242;20.886;2022-08-19T09:16:05;16.92;;;8.70;;
32523;SDS011;18965;52.242;20.886;2022-08-19T09:21:11;12.53;;;8.30;;
32523;SDS011;18965;52.242;20.886;2022-08-19T09:23:37;14.30;;;7.68;;
32523;SDS011;18965;52.242;20.886;2022-08-19T09:26:15;14.05;;;7.80;;
32523;SDS011;18965;52.242;20.886;2022-08-19T09:28:45;11.38;;;7.70;;
32523;SDS011;18965;52.242;20.886;2022-08-19T09:31:19;9.82;;;7.43;;
32523;SDS011;18965;52.242;20.886;2022-08-19T09:33:47;12.82;;;7.65;;
32523;SDS011;18965;52.242;20.886;2022-08-19T09:36:15;21.42;;;7.50;;
32523;SDS011;18965;52.242;20.886;2022-08-19T09:38:42;13.35;;;7.47;;
32523;SDS011;18965;52.242;20.886;2022-08-19T09:41:14;10.32;;;6.78;;
32523;SDS011;18965;52.242;20.886;2022-08-19T09:43:44;12.00;;;7.30;;
32523;SDS011;18965;52.242;20.886;2022-08-19T09:46:12;16.27;;;7.38;;
32523;SDS011;18965;52.242;20.886;2022-08-19T09:48:38;11.35;;;6.95;;
32523;SDS011;18965;52.242;20.886;2022-08-19T09:51:06;13.40;;;7.30;;
32523;SDS011;18965;52.242;20.886;2022-08-19T09:53:34;11.82;;;7.05;;
32523;SDS011;18965;52.242;20.886;2022-08-19T09:56:00;13.02;;;7.45;;
32523;SDS011;18965;52.242;20.886;2022-08-19T09:58:27;11.38;;;7.00;;
32523;SDS011;18965;52.242;20.886;2022-08-19T10:00:54;11.73;;;7.63;;
32523;SDS011;18965;52.242;20.886;2022-08-19T10:03:21;11.77;;;7.47;;
32523;SDS011;18965;52.242;20.886;2022-08-19T10:05:47;13.07;;;7.50;;
32523;SDS011;18965;52.242;20.886;2022-08-19T10:08:14;11.65;;;6.85;;
32523;SDS011;18965;52.242;20.886;2022-08-19T10:10:43;9.17;;;7.03;;
32523;SDS011;18965;52.242;20.886;2022-08-19T10:13:09;12.95;;;7.30;;
32523;SDS011;18965;52.242;20.886;2022-08-19T10:15:35;13.30;;;7.40;;
32523;SDS011;18965;52.242;20.886;2022-08-19T10:18:04;15.73;;;7.05;;
32523;SDS011;18965;52.242;20.886;2022-08-19T10:20:30;12.48;;;7.38;;
32523;SDS011;18965;52.242;20.886;2022-08-19T10:22:56;10.75;;;6.80;;
32523;SDS011;18965;52.242;20.886;2022-08-19T10:25:24;16.25;;;6.28;;
32523;SDS011;18965;52.242;20.886;2022-08-19T10:27:51;12.07;;;7.10;;
32523;SDS011;18965;52.242;20.886;2022-08-19T10:30:18;11.65;;;6.88;;
32523;SDS011;18965;52.242;20.886;2022-08-19T10:32:44;11.40;;;6.85;;
32523;SDS011;18965;52.242;20.886;2022-08-19T10:35:11;12.52;;;6.70;;
32523;SDS011;18965;52.242;20.886;2022-08-19T10:37:38;13.13;;;7.00;;
32523;SDS011;18965;52.242;20.886;2022-08-19T10:40:05;10.90;;;6.63;;
32523;SDS011;18965;52.242;20.886;2022-08-19T10:42:32;15.65;;;6.78;;
32523;SDS011;18965;52.242;20.886;2022-08-19T10:45:00;13.80;;;7.50;;
32523;SDS011;18965;52.242;20.886;2022-08-19T10:47:26;15.88;;;6.57;;
32523;SDS011;18965;52.242;20.886;2022-08-19T10:49:53;12.13;;;6.28;;
32523;SDS011;18965;52.242;20.886;2022-08-19T10:52:39;16.83;;;7.32;;
32523;SDS011;18965;52.242;20.886;2022-08-19T10:55:08;12.15;;;7.28;;
32523;SDS011;18965;52.242;20.886;2022-08-19T10:57:52;11.35;;;6.88;;
32523;SDS011;18965;52.242;20.886;2022-08-19T11:00:19;14.82;;;7.22;;
32523;SDS011;18965;52.242;20.886;2022-08-19T11:02:46;11.45;;;6.82;;
32523;SDS011;18965;52.242;20.886;2022-08-19T11:05:12;13.65;;;6.85;;
32523;SDS011;18965;52.242;20.886;2022-08-19T11:07:39;11.32;;;6.80;;
32523;SDS011;18965;52.242;20.886;2022-08-19T11:10:06;10.98;;;6.43;;
32523;SDS011;18965;52.242;20.886;2022-08-19T11:12:35;11.52;;;7.00;;
32523;SDS011;18965;52.242;20.886;2022-08-19T11:15:04;9.95;;;7.55;;
32523;SDS011;18965;52.242;20.886;2022-08-19T11:17:37;11.75;;;6.95;;
32523;SDS011;18965;52.242;20.886;2022-08-19T11:20:06;13.35;;;7.20;;
32523;SDS011;18965;52.242;20.886;2022-08-19T11:22:33;11.95;;;6.63;;
32523;SDS011;18965;52.242;20.886;2022-08-19T11:24:59;10.88;;;7.05;;
32523;SDS011;18965;52.242;20.886;2022-08-19T11:27:25;14.02;;;7.28;;
32523;SDS011;18965;52.242;20.886;2022-08-19T11:29:51;14.68;;;7.15;;
32523;SDS011;18965;52.242;20.886;2022-08-19T11:32:17;11.15;;;7.80;;
32523;SDS011;18965;52.242;20.886;2022-08-19T11:34:43;12.23;;;7.40;;
32523;SDS011;18965;52.242;20.886;2022-08-19T11:37:09;12.23;;;7.70;;
32523;SDS011;18965;52.242;20.886;2022-08-19T11:39:35;11.40;;;7.18;;
32523;SDS011;18965;52.242;20.886;2022-08-19T11:42:02;15.48;;;7.03;;
32523;SDS011;18965;52.242;20.886;2022-08-19T11:44:52;13.25;;;7.30;;
32523;SDS011;18965;52.242;20.886;2022-08-19T11:47:18;11.35;;;6.90;;
32523;SDS011;18965;52.242;20.886;2022-08-19T11:49:45;13.93;;;7.45;;
32523;SDS011;18965;52.242;20.886;2022-08-19T11:52:12;11.98;;;7.13;;
32523;SDS011;18965;52.242;20.886;2022-08-19T11:54:38;11.85;;;7.22;;
32523;SDS011;18965;52.242;20.886;2022-08-19T11:57:03;12.98;;;7.53;;
32523;SDS011;18965;52.242;20.886;2022-08-19T11:59:31;13.18;;;6.80;;
32523;SDS011;18965;52.242;20.886;2022-08-19T12:01:57;11.25;;;6.60;;
32523;SDS011;18965;52.242;20.886;2022-08-19T12:04:24;11.38;;;7.07;;
32523;SDS011;18965;52.242;20.886;2022-08-19T12:06:49;17.02;;;7.70;;
32523;SDS011;18965;52.242;20.886;2022-08-19T12:09:15;13.30;;;7.15;;
32523;SDS011;18965;52.242;20.886;2022-08-19T12:11:42;15.30;;;6.93;;
32523;SDS011;18965;52.242;20.886;2022-08-19T12:14:09;14.25;;;7.00;;
32523;SDS011;18965;52.242;20.886;2022-08-19T12:16:39;14.57;;;7.28;;
32523;SDS011;18965;52.242;20.886;2022-08-19T12:19:06;9.63;;;6.60;;
32523;SDS011;18965;52.242;20.886;2022-08-19T12:21:33;12.48;;;7.30;;
32523;SDS011;18965;52.242;20.886;2022-08-19T12:24:00;12.02;;;6.65;;
32523;SDS011;18965;52.242;20.886;2022-08-19T12:26:28;11.10;;;6.50;;
32523;SDS011;18965;52.242;20.886;2022-08-19T12:28:56;11.82;;;6.72;;
32523;SDS011;18965;52.242;20.886;2022-08-19T12:31:24;13.38;;;7.20;;
32523;SDS011;18965;52.242;20.886;2022-08-19T12:33:51;12.05;;;6.50;;
32523;SDS011;18965;52.242;20.886;2022-08-19T12:36:17;12.15;;;7.32;;
32523;SDS011;18965;52.242;20.886;2022-08-19T12:38:43;12.80;;;6.65;;
32523;SDS011;18965;52.242;20.886;2022-08-19T12:41:10;13.93;;;6.82;;
32523;SDS011;18965;52.242;20.886;2022-08-19T12:43:38;9.95;;;6.70;;
32523;SDS011;18965;52.242;20.886;2022-08-19T12:46:05;13.48;;;6.82;;
32523;SDS011;18965;52.242;20.886;2022-08-19T12:48:31;12.40;;;6.90;;
32523;SDS011;18965;52.242;20.886;2022-08-19T12:50:58;14.77;;;7.20;;
32523;SDS011;18965;52.242;20.886;2022-08-19T12:53:24;11.32;;;7.20;;
32523;SDS011;18965;52.242;20.886;2022-08-19T12:55:56;13.05;;;6.57;;
32523;SDS011;18965;52.242;20.886;2022-08-19T12:58:24;13.82;;;6.55;;
32523;SDS011;18965;52.242;20.886;2022-08-19T13:00:51;16.02;;;7.20;;
32523;SDS011;18965;52.242;20.886;2022-08-19T13:03:17;15.13;;;7.47;;
32523;SDS011;18965;52.242;20.886;2022-08-19T13:05:42;14.02;;;6.60;;
32523;SDS011;18965;52.242;20.886;2022-08-19T13:08:08;10.45;;;6.35;;
32523;SDS011;18965;52.242;20.886;2022-08-19T13:10:34;11.50;;;7.15;;
32523;SDS011;18965;52.242;20.886;2022-08-19T13:13:01;10.85;;;6.65;;
32523;SDS011;18965;52.242;20.886;2022-08-19T13:15:32;12.07;;;6.75;;
32523;SDS011;18965;52.242;20.886;2022-08-19T13:18:04;15.93;;;6.35;;
32523;SDS011;18965;52.242;20.886;2022-08-19T13:20:31;9.25;;;6.60;;
32523;SDS011;18965;52.242;20.886;2022-08-19T13:22:57;12.40;;;6.90;;
32523;SDS011;18965;52.242;20.886;2022-08-19T13:25:23;12.75;;;6.28;;
32523;SDS011;18965;52.242;20.886;2022-08-19T13:27:50;11.00;;;6.60;;
32523;SDS011;18965;52.242;20.886;2022-08-19T13:30:16;14.63;;;6.65;;
32523;SDS011;18965;52.242;20.886;2022-08-19T13:33:02;13.52;;;6.57;;
32523;SDS011;18965;52.242;20.886;2022-08-19T13:35:38;9.90;;;6.60;;
32523;SDS011;18965;52.242;20.886;2022-08-19T13:38:04;12.15;;;6.35;;
32523;SDS011;18965;52.242;20.886;2022-08-19T13:40:31;11.95;;;6.80;;
32523;SDS011;18965;52.242;20.886;2022-08-19T13:43:01;13.27;;;6.78;;
32523;SDS011;18965;52.242;20.886;2022-08-19T13:45:29;9.43;;;5.88;;
32523;SDS011;18965;52.242;20.886;2022-08-19T13:47:59;11.15;;;6.53;;
32523;SDS011;18965;52.242;20.886;2022-08-19T13:50:29;11.43;;;6.43;;
32523;SDS011;18965;52.242;20.886;2022-08-19T13:52:56;11.90;;;6.35;;
32523;SDS011;18965;52.242;20.886;2022-08-19T13:55:23;10.35;;;6.32;;
32523;SDS011;18965;52.242;20.886;2022-08-19T13:57:50;14.48;;;6.43;;
32523;SDS011;18965;52.242;20.886;2022-08-19T14:00:17;16.60;;;5.97;;
32523;SDS011;18965;52.242;20.886;2022-08-19T14:02:44;14.20;;;5.70;;
32523;SDS011;18965;52.242;20.886;2022-08-19T14:05:11;14.60;;;6.47;;
32523;SDS011;18965;52.242;20.886;2022-08-19T14:07:39;10.30;;;6.07;;
32523;SDS011;18965;52.242;20.886;2022-08-19T14:10:05;8.30;;;6.10;;
32523;SDS011;18965;52.242;20.886;2022-08-19T14:12:34;15.07;;;6.47;;
32523;SDS011;18965;52.242;20.886;2022-08-19T14:15:00;10.18;;;6.18;;
32523;SDS011;18965;52.242;20.886;2022-08-19T14:17:27;13.40;;;6.32;;
32523;SDS011;18965;52.242;20.886;2022-08-19T14:20:00;11.18;;;6.50;;
32523;SDS011;18965;52.242;20.886;2022-08-19T14:22:32;13.52;;;5.93;;
32523;SDS011;18965;52.242;20.886;2022-08-19T14:24:59;11.68;;;6.35;;
32523;SDS011;18965;52.242;20.886;2022-08-19T14:27:24;10.45;;;6.40;;
32523;SDS011;18965;52.242;20.886;2022-08-19T14:29:51;12.95;;;6.50;;
32523;SDS011;18965;52.242;20.886;2022-08-19T14:32:17;14.05;;;6.53;;
32523;SDS011;18965;52.242;20.886;2022-08-19T14:34:43;8.23;;;5.88;;
32523;SDS011;18965;52.242;20.886;2022-08-19T14:37:12;8.68;;;5.80;;
32523;SDS011;18965;52.242;20.886;2022-08-19T14:39:39;9.60;;;5.60;;
32523;SDS011;18965;52.242;20.886;2022-08-19T14:42:09;10.35;;;6.10;;
32523;SDS011;18965;52.242;20.886;2022-08-19T14:47:01;12.38;;;5.47;;
32523;SDS011;18965;52.242;20.886;2022-08-19T14:49:27;12.35;;;5.85;;
32523;SDS011;18965;52.242;20.886;2022-08-19T14:51:53;17.15;;;6.18;;
32523;SDS011;18965;52.242;20.886;2022-08-19T14:54:19;17.90;;;5.80;;
32523;SDS011;18965;52.242;20.886;2022-08-19T14:56:46;11.30;;;6.03;;